BRL weather

Southeast Iowa Regional Airport
Burlington, Iowa, United States

Public forecast

Using degrees Fahrenheit for public forecast. Weather courtesy of forecast.io.

METAR (pilot weather report)

Retrieved 2019/07/20 18:53 UTC (53 minutes ago):

KBRL 201853Z AUTO 19008KT 10SM CLR 33/24 A2986 RMK AO2 SLP105 T03330244

TAF (pilot weather forecast)

Retrieved 2019/07/20 18:51 UTC (55 minutes ago):

TAF KBRL 201749Z 2018/2118 21010KT P6SM SKC FM210400 19004KT P6SM SCT120 BKN200 FM210900 03011KT P6SM VCTS SCT035CB BKN080 TEMPO 2109/2113 3SM -TSRA BKN025CB FM211300 03009KT P6SM VCTS SCT010CB BKN020